createdAt,value
2018-09-05T00:02:03.750Z,16.55
2018-09-05T00:04:35.766Z,16.66
2018-09-05T00:07:07.791Z,16.77
2018-09-05T00:09:39.769Z,16.83
2018-09-05T00:12:11.749Z,16.70
2018-09-05T00:14:43.772Z,16.64
2018-09-05T00:17:15.790Z,16.64
2018-09-05T00:19:47.782Z,16.63
2018-09-05T00:22:19.891Z,16.64
2018-09-05T00:24:51.882Z,16.58
2018-09-05T00:27:23.918Z,16.55
2018-09-05T00:29:56.063Z,16.49
2018-09-05T00:32:28.071Z,16.49
2018-09-05T00:35:00.162Z,16.50
2018-09-05T00:37:32.151Z,16.55
2018-09-05T00:40:04.212Z,16.57
2018-09-05T00:42:36.299Z,16.57
2018-09-05T00:45:08.282Z,16.72
2018-09-05T00:47:40.257Z,16.79
2018-09-05T00:50:12.230Z,16.84
2018-09-05T00:52:44.211Z,16.86
2018-09-05T00:55:16.247Z,16.90
2018-09-05T00:57:48.226Z,16.98
2018-09-05T01:00:20.219Z,17.02
2018-09-05T01:02:52.220Z,16.97
2018-09-05T01:05:24.215Z,16.99
2018-09-05T01:07:56.234Z,16.95
2018-09-05T01:10:28.223Z,16.94
2018-09-05T01:13:00.239Z,16.98
2018-09-05T01:15:32.282Z,16.99
2018-09-05T01:18:04.342Z,17.02
2018-09-05T01:20:36.362Z,17.03
2018-09-05T01:23:08.391Z,17.03
2018-09-05T01:25:40.472Z,17.00
2018-09-05T01:28:12.501Z,17.04
2018-09-05T01:30:44.514Z,16.97
2018-09-05T01:33:16.601Z,16.98
2018-09-05T01:35:48.932Z,17.08
2018-09-05T01:38:20.940Z,17.02
2018-09-05T01:40:52.970Z,17.01
2018-09-05T01:43:24.957Z,17.02
2018-09-05T01:45:56.931Z,17.01
2018-09-05T01:48:28.926Z,16.96
2018-09-05T01:51:00.917Z,17.03
2018-09-05T01:53:32.979Z,17.00
2018-09-05T01:56:05.179Z,16.96
2018-09-05T01:58:37.216Z,16.99
2018-09-05T02:01:09.250Z,16.88
2018-09-05T02:03:41.350Z,16.82
2018-09-05T02:06:13.399Z,16.78
2018-09-05T02:08:45.384Z,16.81
2018-09-05T02:11:18.090Z,16.81
2018-09-05T02:13:50.112Z,16.88
2018-09-05T02:16:22.083Z,16.85
2018-09-05T02:18:54.070Z,16.84
2018-09-05T02:21:26.044Z,16.77
2018-09-05T02:23:58.084Z,16.78
2018-09-05T02:26:30.123Z,16.82
2018-09-05T02:29:02.129Z,16.74
2018-09-05T02:31:34.163Z,16.71
2018-09-05T02:34:06.179Z,16.72
2018-09-05T02:36:38.187Z,16.74
2018-09-05T02:39:11.023Z,16.72
2018-09-05T02:41:43.034Z,16.79
2018-09-05T02:44:20.550Z,16.76
2018-09-05T02:46:52.598Z,16.77
2018-09-05T02:49:24.666Z,16.74
2018-09-05T02:51:56.675Z,16.77
2018-09-05T02:54:28.714Z,16.73
2018-09-05T02:57:00.842Z,16.72
2018-09-05T02:59:32.995Z,16.70
2018-09-05T03:02:05.028Z,16.69
2018-09-05T03:04:37.106Z,16.70
2018-09-05T03:07:09.159Z,16.60
2018-09-05T03:09:41.207Z,16.57
2018-09-05T03:12:17.806Z,16.62
2018-09-05T03:14:51.275Z,16.64
2018-09-05T03:17:23.288Z,16.68
2018-09-05T03:19:55.289Z,16.70
2018-09-05T03:22:27.347Z,16.67
2018-09-05T03:24:59.420Z,16.65
2018-09-05T03:27:31.438Z,16.72
2018-09-05T03:30:03.547Z,16.73
2018-09-05T03:32:35.712Z,16.77
2018-09-05T03:35:07.621Z,16.64
2018-09-05T03:37:39.639Z,16.78
2018-09-05T03:40:11.688Z,16.78
2018-09-05T03:42:43.764Z,16.72
2018-09-05T03:45:15.758Z,16.76
2018-09-05T03:47:47.758Z,16.79
2018-09-05T03:50:19.861Z,16.46
2018-09-05T03:52:51.929Z,16.70
2018-09-05T03:55:23.933Z,16.74
2018-09-05T03:57:55.956Z,16.69
2018-09-05T04:00:31.392Z,16.66
2018-09-05T04:03:04.256Z,16.63
2018-09-05T04:05:36.286Z,16.65
2018-09-05T04:08:08.301Z,16.66
2018-09-05T04:10:40.602Z,16.64
2018-09-05T04:13:12.627Z,16.62
2018-09-05T04:15:44.641Z,16.61
2018-09-05T04:18:16.653Z,16.55
2018-09-05T04:20:48.745Z,16.56
2018-09-05T04:23:20.776Z,16.56
2018-09-05T04:25:52.803Z,16.58
2018-09-05T04:28:24.885Z,16.63
2018-09-05T04:30:57.013Z,16.60
2018-09-05T04:33:29.145Z,16.63
2018-09-05T04:36:01.202Z,16.63
2018-09-05T04:38:33.299Z,16.59
2018-09-05T04:41:05.348Z,16.59
2018-09-05T04:43:37.395Z,16.56
2018-09-05T04:46:09.543Z,16.56
2018-09-05T04:48:41.549Z,16.66
2018-09-05T04:51:13.595Z,16.68
2018-09-05T04:53:45.636Z,16.79
2018-09-05T04:56:17.652Z,16.79
2018-09-05T04:58:49.686Z,16.75
2018-09-05T05:01:21.728Z,16.78
2018-09-05T05:03:53.869Z,16.80
2018-09-05T05:06:25.855Z,16.77
2018-09-05T05:08:57.911Z,16.76
2018-09-05T05:11:29.923Z,16.81
2018-09-05T05:14:02.050Z,16.83
2018-09-05T05:16:34.116Z,16.80
2018-09-05T05:19:06.162Z,16.76
2018-09-05T05:21:38.160Z,16.86
2018-09-05T05:24:10.232Z,16.91
2018-09-05T05:26:42.318Z,16.94
2018-09-05T05:29:14.334Z,16.94
2018-09-05T05:31:46.389Z,16.97
2018-09-05T05:34:18.856Z,16.92
2018-09-05T05:36:50.980Z,16.87
2018-09-05T05:39:23.427Z,16.90
2018-09-05T05:41:55.490Z,16.92
2018-09-05T05:44:27.530Z,16.98
2018-09-05T05:46:59.579Z,16.97
2018-09-05T05:49:31.714Z,17.00
2018-09-05T05:52:03.727Z,17.05
2018-09-05T05:54:35.773Z,17.06
2018-09-05T05:57:07.782Z,17.08
2018-09-05T05:59:39.827Z,17.13
2018-09-05T06:02:11.907Z,17.15
2018-09-05T06:04:44.120Z,17.19
2018-09-05T06:07:16.254Z,17.19
2018-09-05T06:09:48.442Z,17.23
2018-09-05T06:12:20.545Z,17.16
2018-09-05T06:14:52.574Z,17.20
2018-09-05T06:17:24.646Z,17.23
2018-09-05T06:19:56.748Z,17.26
2018-09-05T06:22:29.116Z,17.41
2018-09-05T06:25:01.174Z,17.44
2018-09-05T06:27:33.223Z,17.48
2018-09-05T06:30:05.390Z,17.56
2018-09-05T06:32:37.383Z,17.48
2018-09-05T06:35:09.420Z,17.58
2018-09-05T06:37:41.457Z,17.60
2018-09-05T06:40:13.464Z,17.67
2018-09-05T06:42:45.453Z,17.56
2018-09-05T06:45:17.480Z,17.66
2018-09-05T06:47:49.522Z,17.66
2018-09-05T06:50:21.653Z,17.80
2018-09-05T06:52:53.730Z,17.60
2018-09-05T06:55:25.830Z,17.93
2018-09-05T06:57:57.968Z,17.94
2018-09-05T07:00:30.087Z,18.09
2018-09-05T07:03:02.147Z,18.20
2018-09-05T07:05:34.296Z,18.34
2018-09-05T07:08:06.384Z,18.58
2018-09-05T07:10:38.470Z,18.64
2018-09-05T07:13:10.541Z,18.89
2018-09-05T07:15:42.612Z,18.81
2018-09-05T07:18:14.612Z,18.81
2018-09-05T07:20:46.706Z,18.75
2018-09-05T07:23:18.714Z,18.75
2018-09-05T07:25:50.708Z,18.67
2018-09-05T07:28:23.021Z,18.75
2018-09-05T07:30:55.229Z,18.79
2018-09-05T07:33:27.330Z,18.97
2018-09-05T07:35:59.442Z,19.09
2018-09-05T07:38:31.572Z,19.08
2018-09-05T07:41:04.094Z,18.97
2018-09-05T07:43:36.998Z,18.92
2018-09-05T07:46:09.041Z,18.90
2018-09-05T07:48:41.210Z,18.85
2018-09-05T07:51:13.352Z,18.59
2018-09-05T07:53:45.380Z,18.64
2018-09-05T07:56:17.410Z,18.47
2018-09-05T07:58:49.539Z,18.43
2018-09-05T08:01:21.551Z,18.66
2018-09-05T08:03:53.681Z,18.82
2018-09-05T08:06:25.702Z,18.80
2018-09-05T08:08:57.766Z,19.18
2018-09-05T08:11:29.811Z,19.57
2018-09-05T08:14:01.822Z,19.68
2018-09-05T08:16:33.946Z,19.88
2018-09-05T08:19:06.101Z,20.01
2018-09-05T08:21:38.202Z,20.30
2018-09-05T08:24:10.261Z,20.70
2018-09-05T08:26:42.370Z,21.00
2018-09-05T08:29:14.451Z,21.65
2018-09-05T08:31:46.429Z,22.12
2018-09-05T08:34:18.570Z,22.45
2018-09-05T08:36:50.810Z,22.48
2018-09-05T08:39:22.567Z,22.32
2018-09-05T08:41:54.595Z,21.78
2018-09-05T08:44:26.692Z,21.70
2018-09-05T08:46:58.667Z,21.41
2018-09-05T08:49:30.687Z,21.30
2018-09-05T08:52:02.699Z,21.08
2018-09-05T08:54:34.733Z,21.29
2018-09-05T08:57:07.409Z,20.98
2018-09-05T08:59:39.516Z,20.69
2018-09-05T09:02:11.546Z,20.32
2018-09-05T09:04:43.670Z,20.37
2018-09-05T09:07:15.696Z,20.24
2018-09-05T09:09:47.765Z,20.40
2018-09-05T09:12:20.063Z,20.49
2018-09-05T09:14:52.067Z,20.39
2018-09-05T09:17:24.158Z,20.18
2018-09-05T09:19:56.386Z,20.20
2018-09-05T09:22:28.456Z,20.54
2018-09-05T09:25:00.474Z,21.08
2018-09-05T09:27:32.572Z,21.38
2018-09-05T09:30:04.783Z,22.05
2018-09-05T09:32:36.892Z,22.35
2018-09-05T09:35:08.907Z,23.02
2018-09-05T09:37:41.017Z,23.29
2018-09-05T09:40:13.003Z,23.06
2018-09-05T09:42:45.133Z,22.66
2018-09-05T09:45:17.219Z,22.17
2018-09-05T09:47:49.319Z,22.32
2018-09-05T09:50:21.481Z,22.00
2018-09-05T09:52:53.557Z,22.38
2018-09-05T09:55:25.566Z,22.24
2018-09-05T09:57:57.620Z,22.09
2018-09-05T10:00:35.332Z,22.47
2018-09-05T10:03:12.922Z,22.00
2018-09-05T10:05:50.744Z,21.71
2018-09-05T10:08:28.541Z,21.53
2018-09-05T10:12:30.191Z,21.85
2018-09-05T10:15:06.783Z,22.30
2018-09-05T10:17:38.786Z,22.76
2018-09-05T10:20:10.887Z,23.07
2018-09-05T10:22:42.976Z,22.78
2018-09-05T10:25:14.902Z,22.65
2018-09-05T10:27:46.935Z,22.76
2018-09-05T10:30:18.967Z,23.16
2018-09-05T10:32:50.991Z,23.39
2018-09-05T10:35:23.013Z,23.62
2018-09-05T10:37:55.022Z,23.48
2018-09-05T10:40:27.135Z,23.36
2018-09-05T10:42:59.162Z,23.16
2018-09-05T10:45:31.203Z,23.53
2018-09-05T10:48:03.378Z,23.70
2018-09-05T10:50:35.394Z,23.99
2018-09-05T10:53:07.412Z,24.58
2018-09-05T10:55:39.427Z,24.39
2018-09-05T10:58:11.610Z,24.83
2018-09-05T11:00:43.661Z,24.84
2018-09-05T11:03:15.697Z,24.10
2018-09-05T11:05:47.727Z,24.18
2018-09-05T11:08:19.735Z,24.17
2018-09-05T11:10:51.847Z,24.31
2018-09-05T11:13:23.808Z,23.64
2018-09-05T11:15:55.839Z,23.58
2018-09-05T11:18:27.841Z,23.76
2018-09-05T11:20:59.920Z,23.64
2018-09-05T11:23:31.938Z,23.92
2018-09-05T11:26:03.954Z,23.91
2018-09-05T11:28:36.046Z,24.10
2018-09-05T11:31:08.098Z,24.48
2018-09-05T11:33:40.090Z,24.63
2018-09-05T11:36:12.103Z,26.18
2018-09-05T11:38:44.093Z,27.07
2018-09-05T11:41:16.117Z,26.14
2018-09-05T11:43:48.531Z,25.94
2018-09-05T11:46:20.721Z,25.95
2018-09-05T11:48:52.704Z,25.96
2018-09-05T11:51:24.734Z,26.35
2018-09-05T11:53:56.719Z,26.63
2018-09-05T11:56:28.739Z,25.94
2018-09-05T11:59:00.764Z,25.13
2018-09-05T12:01:32.801Z,24.89
2018-09-05T12:04:04.835Z,24.90
2018-09-05T12:06:37.008Z,25.31
2018-09-05T12:09:09.913Z,25.25
2018-09-05T12:11:41.942Z,26.00
2018-09-05T12:14:13.940Z,26.78
2018-09-05T12:16:46.015Z,27.23
2018-09-05T12:19:18.292Z,28.21
2018-09-05T12:21:50.418Z,27.50
2018-09-05T12:24:22.490Z,27.60
2018-09-05T12:26:54.542Z,27.68
2018-09-05T12:29:29.235Z,27.47
2018-09-05T12:32:01.357Z,27.15
2018-09-05T12:34:33.411Z,27.68
2018-09-05T12:37:05.430Z,27.06
2018-09-05T12:39:37.499Z,26.72
2018-09-05T12:42:09.679Z,27.34
2018-09-05T12:44:41.774Z,26.74
2018-09-05T12:47:13.812Z,26.27
2018-09-05T12:49:45.830Z,26.15
2018-09-05T12:52:17.846Z,26.20
2018-09-05T12:54:50.971Z,25.96
2018-09-05T12:57:23.054Z,26.09
2018-09-05T12:59:55.177Z,26.46
2018-09-05T13:02:27.203Z,27.30
2018-09-05T13:04:59.259Z,28.15
2018-09-05T13:07:31.283Z,28.35
2018-09-05T13:10:03.363Z,28.48
2018-09-05T13:12:35.643Z,29.17
2018-09-05T13:15:07.635Z,29.86
2018-09-05T13:17:39.683Z,30.35
2018-09-05T13:20:11.950Z,31.00
2018-09-05T13:22:44.019Z,31.60
2018-09-05T13:25:16.142Z,31.56
2018-09-05T13:27:48.279Z,30.88
2018-09-05T13:30:26.151Z,31.24
2018-09-05T13:32:58.189Z,31.97
2018-09-05T13:35:30.366Z,32.14
2018-09-05T13:38:02.410Z,32.13
2018-09-05T13:40:34.457Z,30.22
2018-09-05T13:43:06.608Z,30.68
2018-09-05T13:45:38.660Z,32.05
2018-09-05T13:48:10.727Z,32.45
2018-09-05T13:50:42.768Z,31.06
2018-09-05T13:53:14.772Z,31.62
2018-09-05T13:55:46.851Z,31.16
2018-09-05T13:58:18.899Z,31.07
2018-09-05T14:00:50.986Z,31.88
2018-09-05T14:03:23.032Z,33.21
2018-09-05T14:05:55.079Z,33.23
2018-09-05T14:08:27.202Z,32.70
2018-09-05T14:10:59.253Z,32.71
2018-09-05T14:13:31.385Z,33.39
2018-09-05T14:16:03.678Z,33.01
2018-09-05T14:18:35.708Z,33.36
2018-09-05T14:21:07.737Z,32.62
2018-09-05T14:23:39.832Z,31.75
2018-09-05T14:26:11.863Z,33.38
2018-09-05T14:28:43.889Z,33.56
2018-09-05T14:31:15.924Z,33.72
2018-09-05T14:33:47.979Z,32.88
2018-09-05T14:36:20.038Z,32.23
2018-09-05T14:38:52.067Z,33.09
2018-09-05T14:41:24.054Z,31.37
2018-09-05T14:43:56.090Z,32.17
2018-09-05T14:46:28.086Z,32.50
2018-09-05T14:49:00.110Z,33.28
2018-09-05T14:51:32.192Z,33.25
2018-09-05T14:54:04.270Z,32.75
2018-09-05T14:56:36.208Z,31.98
2018-09-05T14:59:08.240Z,32.60
2018-09-05T15:01:40.235Z,32.47
2018-09-05T15:04:12.283Z,33.06
2018-09-05T15:06:44.290Z,33.16
2018-09-05T15:09:16.362Z,31.99
2018-09-05T15:11:48.416Z,32.22
2018-09-05T15:14:20.371Z,31.62
2018-09-05T15:16:52.355Z,32.52
2018-09-05T15:19:24.359Z,32.56
2018-09-05T15:21:56.386Z,33.34
2018-09-05T15:24:28.384Z,33.23
2018-09-05T15:27:00.430Z,32.23
2018-09-05T15:29:32.473Z,30.50
2018-09-05T15:32:04.509Z,29.24
2018-09-05T15:34:36.499Z,28.05
2018-09-05T15:37:08.514Z,27.54
2018-09-05T15:39:40.576Z,28.17
2018-09-05T15:42:12.563Z,28.34
2018-09-05T15:44:44.557Z,28.15
2018-09-05T15:47:16.566Z,27.96
2018-09-05T15:49:48.551Z,27.29
2018-09-05T15:52:20.557Z,26.94
2018-09-05T15:54:52.542Z,26.48
2018-09-05T15:57:24.588Z,26.24
2018-09-05T15:59:56.635Z,26.17
2018-09-05T16:02:28.698Z,26.00
2018-09-05T16:05:00.712Z,26.04
2018-09-05T16:07:32.709Z,25.59
2018-09-05T16:10:04.770Z,25.81
2018-09-05T16:12:36.785Z,25.19
2018-09-05T16:15:08.869Z,25.08
2018-09-05T16:17:40.774Z,25.13
2018-09-05T16:20:12.813Z,25.19
2018-09-05T16:22:44.812Z,24.95
2018-09-05T16:25:16.845Z,25.00
2018-09-05T16:27:48.877Z,24.46
2018-09-05T16:30:20.882Z,24.36
2018-09-05T16:32:52.906Z,24.14
2018-09-05T16:35:24.982Z,24.18
2018-09-05T16:37:56.935Z,24.04
2018-09-05T16:40:28.927Z,23.85
2018-09-05T16:43:01.026Z,23.92
2018-09-05T16:45:33.129Z,23.77
2018-09-05T16:48:05.258Z,23.51
2018-09-05T16:50:37.252Z,23.35
2018-09-05T16:53:09.276Z,23.11
2018-09-05T16:55:41.304Z,23.10
2018-09-05T16:58:13.300Z,22.93
2018-09-05T17:00:45.322Z,22.87
2018-09-05T17:03:17.330Z,22.69
2018-09-05T17:05:49.352Z,22.60
2018-09-05T17:08:21.354Z,22.57
2018-09-05T17:10:53.387Z,22.47
2018-09-05T17:13:25.424Z,22.33
2018-09-05T17:15:57.574Z,22.18
2018-09-05T17:18:29.657Z,22.11
2018-09-05T17:21:01.680Z,22.04
2018-09-05T17:23:33.700Z,21.98
2018-09-05T17:26:05.749Z,21.81
2018-09-05T17:28:37.784Z,21.58
2018-09-05T17:31:09.844Z,21.42
2018-09-05T17:33:41.844Z,21.30
2018-09-05T17:36:14.101Z,21.21
2018-09-05T17:38:46.143Z,21.04
2018-09-05T17:41:18.172Z,20.88
2018-09-05T17:43:50.175Z,20.75
2018-09-05T17:46:22.215Z,20.59
2018-09-05T17:48:54.220Z,20.51
2018-09-05T17:51:26.274Z,20.42
2018-09-05T17:53:58.268Z,20.37
2018-09-05T17:56:30.321Z,20.24
2018-09-05T17:59:02.417Z,20.09
2018-09-05T18:01:35.546Z,19.95
2018-09-05T18:04:07.570Z,19.82
2018-09-05T18:06:39.594Z,19.68
2018-09-05T18:09:11.973Z,19.51
2018-09-05T18:11:44.038Z,19.38
2018-09-05T18:14:16.065Z,19.34
2018-09-05T18:16:48.241Z,19.23
2018-09-05T18:19:20.414Z,19.13
2018-09-05T18:21:52.551Z,19.13
2018-09-05T18:24:24.605Z,18.98
2018-09-05T18:26:56.807Z,18.84
2018-09-05T18:29:28.818Z,18.64
2018-09-05T18:32:01.187Z,18.48
2018-09-05T18:34:33.252Z,18.56
2018-09-05T18:37:05.480Z,18.46
2018-09-05T18:39:37.624Z,18.34
2018-09-05T18:42:09.639Z,18.42
2018-09-05T18:44:41.807Z,18.36
2018-09-05T18:47:14.868Z,18.18
2018-09-05T18:49:46.999Z,18.08
2018-09-05T18:52:19.095Z,18.07
2018-09-05T18:54:51.112Z,18.06
2018-09-05T18:57:23.239Z,18.05
2018-09-05T18:59:55.266Z,17.92
2018-09-05T19:02:27.313Z,17.93
2018-09-05T19:04:59.571Z,17.93
2018-09-05T19:10:10.509Z,17.63
2018-09-05T19:12:42.567Z,17.43
2018-09-05T19:15:14.675Z,17.27
2018-09-05T19:17:46.834Z,17.23
2018-09-05T19:20:18.866Z,17.25
2018-09-05T19:22:50.952Z,17.17
2018-09-05T19:25:23.105Z,17.22
2018-09-05T19:27:55.176Z,17.19
2018-09-05T19:30:27.242Z,17.19
2018-09-05T19:32:59.266Z,17.11
2018-09-05T19:35:31.706Z,16.96
2018-09-05T19:38:03.702Z,16.88
2018-09-05T19:40:35.840Z,16.81
2018-09-05T19:43:07.864Z,16.88
2018-09-05T19:45:39.953Z,16.93
2018-09-05T19:48:11.974Z,16.89
2018-09-05T19:50:44.136Z,16.97
2018-09-05T19:53:16.226Z,16.95
2018-09-05T19:55:48.253Z,16.94
2018-09-05T19:58:20.493Z,16.86
2018-09-05T20:00:52.669Z,16.72
2018-09-05T20:03:31.672Z,16.61
2018-09-05T20:06:03.686Z,16.53
2018-09-05T20:08:35.747Z,16.18
2018-09-05T20:11:08.435Z,16.43
2018-09-05T20:13:40.583Z,16.37
2018-09-05T20:16:13.514Z,16.29
2018-09-05T20:18:45.620Z,16.35
2018-09-05T20:21:17.650Z,16.35
2018-09-05T20:23:49.695Z,16.41
2018-09-05T20:26:22.489Z,16.38
2018-09-05T20:28:55.255Z,16.37
2018-09-05T20:31:27.229Z,16.26
2018-09-05T20:33:59.471Z,16.22
2018-09-05T20:36:32.011Z,16.27
2018-09-05T20:39:07.234Z,16.23
2018-09-05T20:41:39.430Z,16.14
2018-09-05T20:44:11.451Z,16.12
2018-09-05T20:46:43.476Z,16.06
2018-09-05T20:49:15.532Z,15.99
2018-09-05T20:51:47.786Z,15.93
2018-09-05T20:54:19.872Z,15.92
2018-09-05T20:56:52.177Z,15.95
2018-09-05T20:59:24.473Z,16.02
2018-09-05T21:01:56.534Z,16.14
2018-09-05T21:04:28.824Z,16.00
2018-09-05T21:07:00.947Z,15.97
2018-09-05T21:09:34.167Z,15.98
2018-09-05T21:12:06.179Z,15.86
2018-09-05T21:14:38.262Z,15.70
2018-09-05T21:17:10.584Z,15.67
2018-09-05T21:19:42.860Z,15.59
2018-09-05T21:22:16.111Z,15.56
2018-09-05T21:24:48.295Z,15.53
2018-09-05T21:27:20.358Z,15.47
2018-09-05T21:29:52.393Z,15.45
2018-09-05T21:32:24.424Z,15.38
2018-09-05T21:34:56.568Z,15.47
2018-09-05T21:37:28.641Z,15.68
2018-09-05T21:40:00.708Z,15.68
2018-09-05T21:42:32.718Z,15.51
2018-09-05T21:45:05.160Z,15.48
2018-09-05T21:47:37.189Z,15.47
2018-09-05T21:50:09.219Z,15.43
2018-09-05T21:52:41.303Z,15.54
2018-09-05T21:55:13.346Z,15.50
2018-09-05T21:57:45.362Z,15.43
2018-09-05T22:00:17.347Z,15.35
2018-09-05T22:02:49.457Z,15.32
2018-09-05T22:05:21.484Z,15.31
2018-09-05T22:07:53.713Z,15.32
2018-09-05T22:10:25.715Z,15.29
2018-09-05T22:12:57.751Z,15.16
2018-09-05T22:15:34.959Z,15.08
2018-09-05T22:18:06.986Z,15.08
2018-09-05T22:20:38.986Z,15.02
2018-09-05T22:23:11.091Z,15.08
2018-09-05T22:25:43.124Z,14.97
2018-09-05T22:28:15.118Z,14.94
2018-09-05T22:30:47.150Z,15.00
2018-09-05T22:33:19.169Z,15.10
2018-09-05T22:35:51.182Z,15.09
2018-09-05T22:38:23.184Z,15.03
2018-09-05T22:40:55.651Z,14.90
2018-09-05T22:43:39.176Z,14.77
2018-09-05T22:46:22.648Z,14.93
2018-09-05T22:51:25.221Z,14.92
2018-09-05T22:56:21.675Z,14.65
2018-09-05T23:00:06.861Z,14.65
2018-09-05T23:04:52.676Z,14.53
2018-09-05T23:09:39.455Z,14.42
2018-09-05T23:12:24.770Z,14.28
2018-09-05T23:15:08.399Z,14.13
2018-09-05T23:19:59.733Z,14.24
2018-09-05T23:22:43.408Z,14.29
2018-09-05T23:25:15.403Z,14.29
2018-09-05T23:27:47.453Z,14.34
2018-09-05T23:30:19.488Z,14.42
2018-09-05T23:32:51.536Z,14.46
2018-09-05T23:35:23.560Z,14.38
2018-09-05T23:37:55.594Z,14.35
2018-09-05T23:40:27.657Z,14.39
2018-09-05T23:42:59.798Z,14.44
2018-09-05T23:45:31.861Z,14.37
2018-09-05T23:48:04.125Z,14.41
2018-09-05T23:50:36.139Z,14.44
2018-09-05T23:53:08.250Z,14.43
2018-09-05T23:55:40.313Z,14.41
2018-09-05T23:58:12.366Z,14.41
